• Join FlightAware (Why Join?)
  • Login
  • US Flag 
09:17AM EDT


 

Airport Tracker/Info


-or-


 

Live Flight TrackerFlight Track Log ✈ N828AW ✈ 2013年 05月 06日 ✈ KMSP - KPHX

Flight Track Log - Related Links

Times and Time Zones

All times are in EDT time to prevent confusion due to time zone crossing. See the N828AW flight status page for this flight to view local times or setup timezone preferences in your user account.

Time Position Orientation Groundspeed Altitude Reporting Facility
EDT Latitude Longitude Course Direction KTS MPH feet Rate Location/Type
07:01PM 44.8847 -93.3053 235° Southwest 182 209 3,400  Level Minneapolis Center
07:02PM 44.8458 -93.3675 229° Southwest 250 288 5,800 2,280 Climbing Minneapolis Center
07:04PM 44.7764 -93.4036 200° South 271 312 8,200 2,520 Climbing Minneapolis Center
07:05PM 44.5603 -93.8460 235° Southwest  Level FlightAware Approximate
07:05PM 44.7092 -93.4967 225° Southwest 304 350 11,100  Level Minneapolis Center
07:06PM 44.4949 -93.9770 235° Southwest  Level FlightAware Approximate
07:06PM 44.6583 -93.6133 239° Southwest 355 409 13,400  Level Minneapolis Center
07:07PM 44.4288 -94.1090 235° Southwest  Level FlightAware Approximate
07:07PM 44.6044 -93.7369 239° Southwest 373 429 15,600  Level Minneapolis Center
07:09PM 44.4894 -93.9992 238° Southwest 397 457 20,000 1,920 Climbing Minneapolis Center
07:11PM 44.3425 -94.2936 235° Southwest 422 486 23,700 1,560 Climbing Minneapolis Center
07:12PM 44.2733 -94.4336 235° Southwest 434 499 25,000 1,200 Climbing Minneapolis Center
07:13PM 44.2017 -94.5756 235° Southwest 445 512 26,300 1,200 Climbing Minneapolis Center
07:14PM 44.1300 -94.7208 236° Southwest 453 521 27,500 1,320 Climbing Minneapolis Center
07:16PM 44.0034 -94.9165 230° Southwest  Level FlightAware Approximate
07:18PM 43.8197 -95.3253 235° Southwest 445 512 33,200  Level Minneapolis Center
07:19PM 43.7472 -95.4644 234° Southwest 445 512 34,200 1,080 Climbing Minneapolis Center
07:20PM 43.6744 -95.6031 234° Southwest 445 512 35,500 960 Climbing Minneapolis Center
07:21PM 43.6028 -95.7414 234° Southwest 442 509 36,200 720 Climbing Minneapolis Center
07:23PM 43.4997 -95.9174 235° Southwest  Level FlightAware Approximate
07:23PM 43.5417 -95.8335 236° Southwest  Level FlightAware Approximate
07:23PM 43.4436 -96.0442 235° Southwest 443 510 37,900  Level Minneapolis Center
07:24PM 43.4761 -95.9645 235° Southwest  Level FlightAware Approximate
07:24PM 43.3706 -96.1814 234° Southwest 445 512 38,000  Level Minneapolis Center
07:26PM 43.2709 -96.3426 230° Southwest  Level FlightAware Approximate
07:26PM 43.2381 -96.4300 230° Southwest 447 514 38,000  Level Minneapolis Center
07:27PM 43.1503 -96.5933 234° Southwest 443 510 38,000  Level Minneapolis Center
07:28PM 43.0764 -96.7300 234° Southwest 446 513 38,000  Level Minneapolis Center
07:29PM 43.0039 -96.8656 234° Southwest 443 510 38,000  Level Minneapolis Center
07:31PM 42.9201 -97.0130 232° Southwest  Level FlightAware Approximate
07:31PM 42.8414 -97.1622 232° Southwest 445 512 38,000  Level Minneapolis Center
07:34PM 42.6769 -97.4597 233° Southwest 447 514 38,000  Level Denver Center
07:34PM 42.6125 -97.5750 233° Southwest 451 519 38,000  Level Minneapolis Center
07:38PM 42.4807 -97.7829 229° Southwest  Level FlightAware Approximate
07:39PM 42.2881 -98.1497 233° Southwest 453 521 38,000  Level Denver Center
07:40PM 42.1972 -98.3097 233° Southwest 450 518 38,000  Level Denver Center
07:42PM 42.0767 -98.5225 233° Southwest 448 516 38,000  Level Minneapolis Center
07:44PM 41.9094 -98.8131 232° Southwest 448 516 38,000  Level Minneapolis Center
07:45PM 41.9832 -98.6438 233° Southwest  Level FlightAware Approximate
07:45PM 41.8347 -98.9425 232° Southwest 443 510 38,000  Level Minneapolis Center
07:46PM 41.7581 -99.0711 231° Southwest 442 509 38,000  Level Minneapolis Center
07:47PM 41.6836 -99.2006 232° Southwest 442 509 38,000  Level Minneapolis Center
07:47PM 41.6531 -99.2522 232° Southwest 442 509 38,000  Level Denver Center
07:50PM 41.5332 -99.4535 232° Southwest  Level FlightAware Approximate
07:50PM 41.4258 -99.6364 232° Southwest 442 509 38,000  Level Denver Center
07:51PM 41.3450 -99.7697 231° Southwest 441 507 38,000  Level Denver Center
07:52PM 41.2600 -99.9128 232° Southwest 441 507 38,000  Level Denver Center
07:53PM 41.1878 -100.0333 232° Southwest 437 503 38,000  Level Denver Center
07:54PM 41.1031 -100.1717 231° Southwest 433 498 38,000  Level Denver Center
07:57PM 41.0115 -100.3196 231° Southwest  Level FlightAware Approximate
07:57PM 40.8819 -100.5358 231° Southwest 433 498 38,000  Level Minneapolis Center
07:58PM 40.7908 -100.6819 231° Southwest 430 495 38,000  Level Denver Center
08:00PM 40.7045 -100.8151 229° Southwest  Level FlightAware Approximate
08:01PM 40.6383 -100.9278 229° Southwest 436 502 38,000  Level Denver Center
08:03PM 40.4781 -101.1856 231° Southwest 438 504 38,000  Level Denver Center
08:04PM 40.3928 -101.3214 231° Southwest 433 498 38,000  Level Denver Center
08:05PM 40.3186 -101.4375 230° Southwest 434 499 38,000  Level Denver Center
08:06PM 40.2444 -101.5542 230° Southwest 434 499 38,000  Level Denver Center
08:07PM 40.1578 -101.6908 230° Southwest 435 501 38,000  Level Denver Center
08:08PM 40.0833 -101.8064 230° Southwest 435 501 38,000  Level Denver Center
08:09PM 39.9975 -101.9425 231° Southwest 434 499 38,000  Level Denver Center
08:11PM 39.8663 -102.1295 228° Southwest  Level FlightAware Approximate
08:11PM 39.8367 -102.1900 228° Southwest 433 498 38,000  Level Denver Center
08:12PM 39.7631 -102.3042 230° Southwest 432 497 38,000  Level Denver Center
08:13PM 39.7014 -102.4000 230° Southwest 433 498 38,000  Level Denver Center
08:15PM 39.5219 -102.6742 230° Southwest 438 504 38,000  Level Denver Center
08:16PM 39.4414 -102.7969 230° Southwest 442 509 38,000  Level Denver Center
08:17PM 39.3472 -102.9381 229° Southwest 440 506 38,000  Level Denver Center
08:19PM 39.2315 -103.0938 229° Southwest  Level FlightAware Approximate
08:19PM 39.1869 -103.1800 229° Southwest 439 505 38,000  Level Denver Center
08:20PM 39.1056 -103.3011 229° Southwest 442 509 38,000  Level Denver Center
08:21PM 39.0242 -103.4222 229° Southwest 443 510 38,000  Level Denver Center
08:22PM 38.9419 -103.5428 229° Southwest 443 510 38,000  Level Denver Center
08:23PM 38.8606 -103.6631 229° Southwest 442 509 38,000  Level Denver Center
08:25PM 38.7600 -103.7978 226° Southwest  Level FlightAware Approximate
08:27PM 38.5344 -104.1383 229° Southwest 438 504 38,000  Level Denver Center
08:28PM 38.4408 -104.2742 229° Southwest 433 498 38,000  Level Denver Center
08:29PM 38.3606 -104.3917 229° Southwest 436 502 38,000  Level Denver Center
08:30PM 38.2817 -104.5047 228° Southwest 435 501 38,000  Level Denver Center
08:31PM 38.2047 -104.6158 229° Southwest 438 504 38,000  Level Denver Center
08:32PM 38.2164 -104.5719 229° Southwest  Level FlightAware Approximate
08:33PM 38.1398 -104.6832 229° Southwest  Level FlightAware Approximate
08:34PM 38.0386 -104.8519 228° Southwest 434 499 38,000  Level Denver Center
08:35PM 37.9489 -104.9786 228° Southwest 434 499 38,000  Level Denver Center
08:36PM 37.8717 -105.0869 228° Southwest 433 498 38,000  Level Denver Center
08:37PM 37.7806 -105.2147 228° Southwest 439 505 38,000  Level Denver Center
08:38PM 37.7033 -105.3222 228° Southwest 435 501 38,000  Level Denver Center
08:40PM 37.5369 -105.5539 228° Southwest 432 497 38,000  Level Denver Center
08:41PM 37.4481 -105.6778 228° Southwest 428 493 38,000  Level Denver Center
08:42PM 37.3700 -105.7839 227° Southwest 430 495 38,000  Level Denver Center
08:43PM 37.2972 -105.8983 231° Southwest 434 499 38,000  Level Denver Center
08:45PM 37.1497 -106.1514 234° Southwest 436 502 38,000  Level Denver Center
08:46PM 37.0689 -106.2850 233° Southwest 431 496 38,000  Level Denver Center
08:48PM 36.9442 -106.4981 234° Southwest 433 498 38,000  Level Denver Center
08:49PM 36.8531 -106.6494 233° Southwest 428 493 38,000  Level Denver Center
08:51PM 36.7044 -106.8961 233° Southwest 428 493 38,000  Level Denver Center
08:52PM 36.6358 -107.0089 233° Southwest 428 493 38,000 -660 Level Denver Center
08:54PM 36.4911 -107.2469 233° Southwest 414 476 36,000 -480 Descending Denver Center
08:56PM 36.3364 -107.5022 233° Southwest 412 474 36,000  Level Albuquerque Center
08:57PM 36.2589 -107.6278 233° Southwest 410 472 36,000  Level Albuquerque Center
08:58PM 36.1942 -107.7333 233° Southwest 405 466 36,000  Level Albuquerque Center
08:59PM 36.1178 -107.8569 233° Southwest 404 465 36,000  Level Albuquerque Center
09:00PM 36.0533 -107.9589 232° Southwest 397 457 36,000  Level Albuquerque Center
09:02PM 35.9897 -108.0617 233° Southwest 394 453 36,000  Level Albuquerque Center
09:03PM 35.8625 -108.2628 232° Southwest 389 448 36,000  Level Denver Center
09:05PM 35.7889 -108.3817 233° Southwest 388 447 36,000  Level Albuquerque Center
09:06PM 35.7093 -108.5021 231° Southwest  Level FlightAware Approximate
09:07PM 35.6519 -108.5986 231° Southwest 385 443 36,000  Level Albuquerque Center
09:08PM 35.5778 -108.7153 232° Southwest 385 443 36,000  Level Albuquerque Center
09:09PM 35.5147 -108.8142 232° Southwest 384 442 36,000  Level Albuquerque Center
09:10PM 35.4486 -108.9119 230° Southwest 386 444 36,000  Level Albuquerque Center
09:12PM 35.3015 -109.0980 226° Southwest  Level FlightAware Approximate
09:13PM 35.2244 -109.2008 226° Southwest 388 447 36,000  Level Albuquerque Center
09:14PM 35.1408 -109.3069 226° Southwest 388 447 36,000  Level Albuquerque Center
09:16PM 34.9853 -109.5044 226° Southwest 387 445 36,000  Level Albuquerque Center
09:17PM 34.9128 -109.5944 226° Southwest 388 447 36,000  Level Albuquerque Center
09:18PM 34.8414 -109.6858 226° Southwest 389 448 36,000  Level Albuquerque Center
09:19PM 34.7572 -109.7944 227° Southwest 393 452 36,000  Level Albuquerque Center
09:20PM 34.6964 -109.8928 233° Southwest 384 442 36,000  Level Albuquerque Center
09:21PM 34.6536 -110.0014 244° Southwest 375 432 36,000 -120 Level Albuquerque Center
09:22PM 34.6086 -110.1331 247° West 376 433 35,800 -780 Descending Albuquerque Center
09:24PM 34.5225 -110.3282 242° Southwest  Level FlightAware Approximate
09:25PM 34.5181 -110.5033 242° Southwest 400 460 33,000  Level Albuquerque Center
09:26PM 34.5156 -110.6331 269° West 392 451 31,800 -1,140 Descending Albuquerque Center
09:27PM 34.5097 -110.7611 267° West 386 444 30,700 -2,400 Descending Albuquerque Center
09:29PM 34.3895 -110.9033 225° Southwest  Level Estimated
09:29PM 34.3667 -110.9275 225° Southwest 369 425 24,600  Level Albuquerque Center
09:31PM 34.2194 -111.0096 205° Southwest  Level FlightAware Approximate
09:31PM 34.1972 -111.0389 205° Southwest 345 397 20,000  Level Albuquerque Center
09:32PM 34.1208 -111.0936 211° Southwest 327 376 18,300 -1,800 Descending Albuquerque Center
09:33PM 34.0647 -111.1686 228° Southwest 307 353 16,400 -1,980 Descending Albuquerque Center
09:35PM 33.9667 -111.2833 224° Southwest 292 336 13,400 -1,920 Descending Phoenix TRACON
09:35PM 33.9431 -111.3275 237° Southwest 291 335 12,600 -1,320 Descending Albuquerque Center
09:36PM 33.8875 -111.3983 227° Southwest 290 334 11,400 -1,200 Descending Albuquerque Center
09:37PM 33.8294 -111.4500 216° Southwest 263 303 10,200 -1,200 Descending Albuquerque Center
09:38PM 33.7719 -111.4989 215° Southwest 253 291 9,000 -1,080 Descending Albuquerque Center
09:39PM 33.7161 -111.5472 216° Southwest 248 285 8,000 -540 Descending Albuquerque Center
09:40PM 33.6622 -111.5942 216° Southwest 242 278 8,000 -300 Level Albuquerque Center
09:41PM 33.6111 -111.6369 215° Southwest 228 262 7,500 -1,380 Descending Albuquerque Center
09:42PM 33.5586 -111.6800 214° Southwest 227 261 5,200 -1,260 Descending Albuquerque Center
09:43PM 33.5069 -111.7231 215° Southwest 227 261 5,000 -420 Descending Albuquerque Center
09:44PM 33.4725 -111.7767 232° Southwest 218 251 4,400 -840 Descending Albuquerque Center
09:45PM 33.4492 -111.8297 242° Southwest 196 226 3,400 -1,020 Descending Albuquerque Center